Terminal Aerodrome Forecast
Issued by NWS

Home | Current Version | Previous Version | Text Only | Print | Product List | Glossary On
Versions: 1 2 3 4 5 6 7 8 9 10 11 12 13 14 15 16 17 18 19 20 21 22 23 24 25 26 27 28 29 30 31 32 33
000
FTUS41 KBOX 020522
TAFHYA
TAF
KHYA 020522Z 0206/0306 04015G25KT P6SM -RA OVC012
     FM021100 03018G25KT 3SM -RA BR OVC003
     FM021500 04018G26KT P6SM OVC015
     FM021900 03016G25KT P6SM BKN025
     FM022300 04014G21KT P6SM BKN050
     FM030300 03010KT P6SM SCT040=

USA.gov is the U.S. government's official web portal to all federal, state and local government web resources and services.